Time;durP1;ratioP1;P1;durP2;ratioP2;P2;SDS_P1;SDS_P2;PMS_P1;PMS_P2;Temp;Humidity;BMP_temperature;BMP_pressure;BME280_temperature;BME280_humidity;BME280_pressure;Samples;Min_cycle;Max_cycle;Signal;HPM_P1;HPM_P2
2023/01/12 00:01:10;;;;;;;12.30;8.65;;;;;;;9.03;100.00;101127.50;2093614;28;20047;-76
2023/01/12 00:02:33;;;;;;;10.00;4.40;;;;;;;9.04;100.00;101126.69;2093725;28;20048;-75
2023/01/12 00:03:55;;;;;;;6.80;3.55;;;;;;;9.06;100.00;101127.59;2093681;28;20089;-76
2023/01/12 00:05:17;;;;;;;5.70;3.15;;;;;;;9.06;100.00;101132.84;2093853;28;20056;-76
2023/01/12 00:06:39;;;;;;;5.43;2.08;;;;;;;9.07;100.00;101130.25;2099352;28;20346;-76
2023/01/12 00:08:01;;;;;;;12.88;10.63;;;;;;;9.04;100.00;101127.56;2087831;28;20131;-76
2023/01/12 00:09:22;;;;;;;11.20;8.02;;;;;;;8.98;100.00;101134.41;2085402;28;20104;-76
2023/01/12 00:10:44;;;;;;;10.60;7.53;;;;;;;8.92;100.00;101127.22;2091009;28;20056;-76
2023/01/12 00:12:09;;;;;;;9.80;7.07;;;;;;;8.91;100.00;101135.06;2093707;28;20044;-76
2023/01/12 00:13:33;;;;;;;13.05;9.15;;;;;;;8.92;100.00;101131.59;2094312;28;20548;-76
2023/01/12 00:14:55;;;;;;;15.65;11.48;;;;;;;8.92;100.00;101128.97;2096027;28;20049;-76
2023/01/12 00:16:33;;;;;;;15.60;11.32;;;;;;;8.91;100.00;101130.72;2093584;28;20117;-76
2023/01/12 00:17:56;;;;;;;18.02;13.70;;;;;;;8.87;100.00;101135.81;2104298;28;20071;-76
2023/01/12 00:19:20;;;;;;;14.27;10.77;;;;;;;8.83;100.00;101131.34;2096447;28;20052;-76
2023/01/12 00:20:46;;;;;;;26.63;21.90;;;;;;;8.75;100.00;101134.63;2096224;28;20521;-76
2023/01/12 00:22:13;;;;;;;9.15;5.82;;;;;;;8.73;100.00;101133.69;2094141;28;20052;-76
2023/01/12 00:23:35;;;;;;;13.52;8.60;;;;;;;8.75;100.00;101134.63;2099793;28;20063;-75
2023/01/12 00:24:57;;;;;;;10.18;6.47;;;;;;;8.76;100.00;101139.06;2101745;28;20282;-76
2023/01/12 00:26:18;;;;;;;8.05;4.18;;;;;;;8.77;100.00;101132.94;2101950;28;20117;-76
2023/01/12 00:27:41;;;;;;;6.45;3.97;;;;;;;8.80;100.00;101129.50;2102157;28;20048;-75
2023/01/12 00:29:03;;;;;;;5.00;2.83;;;;;;;8.84;100.00;101139.28;2101531;28;20040;-75
2023/01/12 00:30:26;;;;;;;5.50;1.90;;;;;;;8.84;100.00;101131.38;2101956;28;20417;-75
2023/01/12 00:31:48;;;;;;;4.40;1.80;;;;;;;8.83;100.00;101126.06;2102121;28;20222;-75
2023/01/12 00:33:10;;;;;;;4.43;1.85;;;;;;;8.83;100.00;101128.69;2104678;28;20712;-75
2023/01/12 00:34:33;;;;;;;6.97;1.80;;;;;;;8.80;100.00;101126.84;2101872;28;20138;-75
2023/01/12 00:35:54;;;;;;;5.07;1.70;;;;;;;8.77;100.00;101138.22;2101811;28;20477;-76
2023/01/12 00:37:18;;;;;;;5.65;1.90;;;;;;;8.75;100.00;101132.00;2101780;28;20040;-76
2023/01/12 00:38:39;;;;;;;2.72;1.20;;;;;;;8.74;100.00;101119.69;2102242;28;20052;-75
2023/01/12 00:40:02;;;;;;;4.10;1.33;;;;;;;8.77;100.00;101134.69;2101957;28;20044;-74
2023/01/12 00:46:18;;;;;;;4.97;1.83;;;;;;;8.83;100.00;101121.69;2096035;28;20052;-75
2023/01/12 00:47:42;;;;;;;7.50;2.88;;;;;;;8.88;100.00;101124.44;2101938;28;20067;-74
2023/01/12 00:49:05;;;;;;;6.75;3.35;;;;;;;8.87;100.00;101115.66;2104469;28;20570;-75
2023/01/12 00:50:27;;;;;;;6.68;2.80;;;;;;;8.88;100.00;101113.91;2100667;28;20056;-76
2023/01/12 00:51:49;;;;;;;7.07;2.90;;;;;;;8.86;100.00;101113.00;2101571;28;20052;-75
2023/01/12 00:53:12;;;;;;;7.82;3.33;;;;;;;8.86;100.00;101115.63;2101515;28;20586;-75
2023/01/12 00:54:33;;;;;;;7.10;2.38;;;;;;;8.86;100.00;101113.88;2093277;28;20056;-75
2023/01/12 00:56:02;;;;;;;6.10;2.17;;;;;;;8.87;100.00;101109.50;2091089;28;20086;-75
2023/01/12 00:57:23;;;;;;;6.22;2.30;;;;;;;8.85;100.00;101112.13;2092474;28;20052;-76
2023/01/12 00:58:45;;;;;;;6.88;1.50;;;;;;;8.84;100.00;101104.16;2099032;28;20048;-75
2023/01/12 01:00:11;;;;;;;3.88;1.30;;;;;;;8.85;100.00;101106.84;2102184;28;20051;-76
2023/01/12 01:01:33;;;;;;;3.00;1.80;;;;;;;8.87;100.00;101109.50;2094874;28;20609;-76
2023/01/12 01:02:55;;;;;;;5.35;1.33;;;;;;;8.86;100.00;101113.88;2101001;28;20043;-76
2023/01/12 01:04:17;;;;;;;5.35;2.65;;;;;;;8.86;100.00;101107.75;2105721;28;20093;-77
2023/01/12 01:05:39;;;;;;;5.93;2.72;;;;;;;8.83;100.00;101116.44;2097874;28;20102;-76
2023/01/12 01:07:00;;;;;;;6.40;2.58;;;;;;;8.82;100.00;101112.00;2097757;28;20049;-76
2023/01/12 01:08:23;;;;;;;7.70;3.10;;;;;;;8.82;100.00;101114.66;2100778;28;20048;-76
2023/01/12 01:09:45;;;;;;;8.45;4.00;;;;;;;8.81;100.00;101115.50;2097772;28;20090;-75
2023/01/12 01:11:10;;;;;;;7.43;3.60;;;;;;;8.80;100.00;101114.59;2100374;28;20040;-76
2023/01/12 01:12:33;;;;;;;9.20;5.53;;;;;;;8.80;100.00;101122.50;2095565;28;20133;-76
2023/01/12 01:13:54;;;;;;;12.85;8.23;;;;;;;8.80;100.00;101119.84;2100984;28;20036;-75
2023/01/12 01:15:18;;;;;;;18.10;12.13;;;;;;;8.80;100.00;101117.22;2105025;28;20665;-76
2023/01/12 01:16:40;;;;;;;10.63;7.93;;;;;;;8.80;100.00;101122.50;2106287;28;20716;-76
2023/01/12 01:18:02;;;;;;;6.85;5.20;;;;;;;8.80;100.00;101117.22;2094141;28;20719;-75
2023/01/12 01:19:24;;;;;;;6.65;4.40;;;;;;;8.80;100.00;101117.22;2092109;28;20493;-76
2023/01/12 01:20:46;;;;;;;5.68;2.42;;;;;;;8.79;100.00;101120.69;2100777;28;20044;-75
2023/01/12 01:22:08;;;;;;;4.90;2.28;;;;;;;8.77;100.00;101114.53;2095033;28;20037;-76
2023/01/12 01:23:33;;;;;;;6.13;3.15;;;;;;;8.77;100.00;101124.16;2096760;28;20228;-75
2023/01/12 01:24:55;;;;;;;6.60;3.50;;;;;;;8.74;100.00;101110.91;2109661;28;20043;-76
2023/01/12 01:26:19;;;;;;;3.88;2.13;;;;;;;8.74;100.00;101109.16;2103372;28;20184;-76
2023/01/12 01:27:42;;;;;;;5.80;1.85;;;;;;;8.72;100.00;101108.25;2094907;28;20503;-76
2023/01/12 01:29:03;;;;;;;3.55;1.80;;;;;;;8.72;100.00;101108.25;2084321;28;20499;-77
2023/01/12 01:30:27;;;;;;;5.88;3.10;;;;;;;8.71;100.00;101106.47;2092212;28;20517;-76
2023/01/12 01:31:49;;;;;;;9.50;4.78;;;;;;;8.69;100.00;101112.50;2094663;28;20052;-76
2023/01/12 01:33:11;;;;;;;9.50;3.17;;;;;;;8.67;100.00;101117.72;2094924;28;20037;-76
2023/01/12 01:34:34;;;;;;;4.80;2.10;;;;;;;8.65;100.00;101114.19;2094810;28;20048;-75
2023/01/12 01:35:55;;;;;;;8.27;4.32;;;;;;;8.65;100.00;101119.44;2094775;28;20063;-75
2023/01/12 01:37:18;;;;;;;8.75;4.28;;;;;;;8.66;100.00;101115.94;2099662;28;20040;-76
2023/01/12 01:38:42;;;;;;;5.82;2.28;;;;;;;8.69;100.00;101117.78;2103071;28;20170;-76
2023/01/12 01:40:05;;;;;;;8.32;4.95;;;;;;;8.69;100.00;101120.41;2095119;28;20044;-76
2023/01/12 01:41:29;;;;;;;8.35;3.72;;;;;;;8.66;100.00;101112.44;2103509;28;20044;-75
2023/01/12 01:42:50;;;;;;;6.07;2.65;;;;;;;8.69;100.00;101115.16;2103714;28;20551;-75
2023/01/12 01:44:46;;;;;;;5.43;2.83;;;;;;;8.69;100.00;101121.31;2102450;28;20064;-76
2023/01/12 01:46:14;;;;;;;6.68;3.90;;;;;;;8.68;100.00;101119.50;2105381;28;20500;-75
2023/01/12 01:47:40;;;;;;;5.97;2.97;;;;;;;8.70;100.00;101120.47;2093547;28;20049;-76
2023/01/12 01:49:19;;;;;;;5.53;2.30;;;;;;;8.70;100.00;101123.09;2089492;28;20052;-76
2023/01/12 01:50:47;;;;;;;5.10;2.35;;;;;;;8.71;100.00;101126.63;2096149;28;20033;-76
2023/01/12 01:52:12;;;;;;;9.77;4.80;;;;;;;8.70;100.00;101128.34;2096004;28;20792;-76
2023/01/12 01:53:37;;;;;;;8.40;4.32;;;;;;;8.69;100.00;101123.94;2095073;28;20370;-76
2023/01/12 01:55:06;;;;;;;4.45;2.10;;;;;;;8.65;100.00;101127.34;2097506;28;20048;-75
2023/01/12 01:56:32;;;;;;;7.20;2.90;;;;;;;8.64;100.00;101128.19;2095941;28;20393;-76
2023/01/12 01:57:58;;;;;;;5.18;2.53;;;;;;;8.62;100.00;101121.06;2095363;28;20135;-76
2023/01/12 01:59:24;;;;;;;8.43;3.05;;;;;;;8.57;100.00;101128.84;2103034;28;20048;-76
2023/01/12 02:00:46;;;;;;;5.45;1.60;;;;;;;8.51;100.00;101120.78;2095091;28;20102;-76
2023/01/12 02:02:10;;;;;;;4.70;1.40;;;;;;;8.49;100.00;101121.56;2100670;28;20044;-76
2023/01/12 02:03:34;;;;;;;9.18;6.80;;;;;;;8.44;100.00;101129.31;2097250;28;20525;-76
2023/01/12 02:04:56;;;;;;;7.70;4.93;;;;;;;8.43;100.00;101122.28;2100704;28;20036;-76
2023/01/12 02:06:19;;;;;;;13.82;8.25;;;;;;;8.41;100.00;101126.59;2103286;28;20435;-76
2023/01/12 02:07:43;;;;;;;15.43;12.38;;;;;;;8.39;100.00;101130.94;2097208;28;20086;-76
2023/01/12 02:09:09;;;;;;;9.35;6.15;;;;;;;8.39;100.00;101130.94;2100238;28;20083;-75
2023/01/12 02:10:32;;;;;;;14.68;10.93;;;;;;;8.38;100.00;101131.78;2103818;28;20607;-75
2023/01/12 02:17:05;;;;;;;27.38;21.98;;;;;;;8.40;100.00;101123.06;2105796;28;20067;-76
2023/01/12 02:18:34;;;;;;;30.02;22.75;;;;;;;8.44;100.00;101117.91;2104465;28;20066;-78
2023/01/12 02:20:27;;;;;;;21.23;18.77;;;;;;;8.49;100.00;101121.56;2095621;28;20525;-79
2023/01/12 02:22:18;;;;;;;12.80;8.45;;;;;;;8.50;100.00;101121.63;2093476;28;20685;-76
2023/01/12 02:24:09;;;;;;;14.60;12.15;;;;;;;8.49;100.00;101116.28;2102969;28;20397;-76
2023/01/12 02:25:54;;;;;;;10.32;8.57;;;;;;;8.44;100.00;101125.81;2097404;28;20567;-76
2023/01/12 02:27:42;;;;;;;12.80;10.95;;;;;;;8.41;100.00;101123.97;2109569;28;20044;-76
2023/01/12 02:29:30;;;;;;;5.22;3.83;;;;;;;8.38;100.00;101123.88;2105286;28;20601;-76
2023/01/12 02:31:30;;;;;;;8.80;5.40;;;;;;;8.36;100.00;101120.31;2103778;28;20067;-75
2023/01/12 02:33:06;;;;;;;11.70;5.93;;;;;;;8.36;100.00;101126.47;2105428;28;20051;-76
2023/01/12 02:34:37;;;;;;;7.55;4.28;;;;;;;8.38;100.00;101126.50;2087898;28;20085;-75
2023/01/12 02:36:06;;;;;;;10.43;4.90;;;;;;;8.39;100.00;101120.41;2086243;28;20045;-76
2023/01/12 02:37:35;;;;;;;9.45;5.30;;;;;;;8.42;100.00;101127.47;2093671;28;20080;-76
2023/01/12 02:39:03;;;;;;;9.43;7.57;;;;;;;8.40;100.00;101122.19;2095477;28;20057;-76
2023/01/12 02:40:33;;;;;;;21.60;18.23;;;;;;;8.39;100.00;101131.81;2087160;28;20041;-76
2023/01/12 02:43:43;;;;;;;9.02;5.38;;;;;;;8.47;100.00;101124.13;2105579;28;20135;-76
2023/01/12 02:45:19;;;;;;;8.43;4.43;;;;;;;8.56;100.00;101121.78;2102489;28;20117;-76
2023/01/12 02:46:49;;;;;;;8.38;3.72;;;;;;;8.62;100.00;101121.97;2104550;28;20078;-76
2023/01/12 02:48:17;;;;;;;3.83;1.67;;;;;;;8.65;100.00;101129.06;2103018;28;20051;-75
2023/01/12 02:49:46;;;;;;;8.23;2.17;;;;;;;8.70;100.00;101122.19;2103259;28;20071;-76
2023/01/12 02:51:14;;;;;;;4.60;1.40;;;;;;;8.72;100.00;101116.13;2096922;28;20048;-76
2023/01/12 02:52:35;;;;;;;2.67;0.93;;;;;;;8.76;100.00;101119.72;2095002;28;20041;-77
2023/01/12 02:54:01;;;;;;;1.38;0.90;;;;;;;8.75;100.00;101116.22;2094132;28;20075;-76
2023/01/12 02:55:25;;;;;;;3.10;1.15;;;;;;;8.76;100.00;101123.25;2097490;28;20100;-76
2023/01/12 02:56:51;;;;;;;3.47;1.58;;;;;;;8.78;100.00;101116.31;2094709;28;20055;-77
2023/01/12 02:58:15;;;;;;;4.38;1.40;;;;;;;8.75;100.00;101121.47;2100776;28;20413;-76
2023/01/12 02:59:40;;;;;;;9.63;4.43;;;;;;;8.67;100.00;101128.25;2102918;28;20060;-76
2023/01/12 03:01:04;;;;;;;16.15;11.35;;;;;;;8.51;100.00;101130.41;2094923;28;20040;-76
2023/01/12 03:02:29;;;;;;;36.70;26.70;;;;;;;8.36;100.00;101130.81;2090682;28;20053;-75
2023/01/12 03:03:54;;;;;;;28.08;21.75;;;;;;;8.27;100.00;101141.06;2093190;28;20094;-76
2023/01/12 03:05:15;;;;;;;23.95;19.58;;;;;;;8.25;100.00;101137.47;2100788;28;20606;-76
2023/01/12 03:06:45;;;;;;;25.45;18.17;;;;;;;8.21;100.00;101139.09;2093988;28;20044;-76
2023/01/12 03:08:13;;;;;;;9.20;3.90;;;;;;;8.23;100.00;101139.16;2102786;28;20393;-76
2023/01/12 03:09:39;;;;;;;9.07;4.80;;;;;;;8.27;100.00;101139.28;2103272;28;20106;-76
2023/01/12 03:11:12;;;;;;;8.38;4.97;;;;;;;8.34;100.00;101154.44;2102872;28;20040;-76
2023/01/12 03:12:37;;;;;;;11.60;8.13;;;;;;;8.35;100.00;101148.34;2094488;28;20044;-77
2023/01/12 03:14:03;;;;;;;15.02;11.48;;;;;;;8.39;100.00;101136.19;2100529;28;20134;-75
2023/01/12 03:15:27;;;;;;;7.28;5.25;;;;;;;8.45;100.00;101146.00;2096956;28;20417;-76
2023/01/12 03:16:52;;;;;;;6.50;4.18;;;;;;;8.54;100.00;101146.25;2099664;28;20404;-76
2023/01/12 03:18:17;;;;;;;11.15;7.25;;;;;;;8.61;100.00;101150.84;2101675;28;20052;-76
2023/01/12 03:19:42;;;;;;;7.13;4.43;;;;;;;8.65;100.00;101145.75;2103014;28;20055;-76
2023/01/12 03:21:09;;;;;;;9.23;6.25;;;;;;;8.70;100.00;101144.13;2096330;28;20401;-76
2023/01/12 03:22:33;;;;;;;7.93;5.25;;;;;;;8.74;100.00;101139.84;2101816;28;20117;-76
2023/01/12 03:24:00;;;;;;;7.35;5.93;;;;;;;8.76;100.00;101141.69;2096260;28;20110;-76
2023/01/12 03:25:25;;;;;;;6.40;4.63;;;;;;;8.77;100.00;101140.84;2101193;28;20049;-76
2023/01/12 03:26:50;;;;;;;5.80;3.92;;;;;;;8.75;100.00;101145.16;2102631;28;20694;-76
2023/01/12 03:28:15;;;;;;;4.00;2.70;;;;;;;8.72;100.00;101136.31;2102787;28;20656;-76
2023/01/12 03:29:41;;;;;;;4.00;2.88;;;;;;;8.67;100.00;101144.03;2094481;28;20059;-76
2023/01/12 03:31:09;;;;;;;3.28;1.10;;;;;;;8.61;100.00;101135.97;2100093;28;20110;-76
2023/01/12 03:32:31;;;;;;;2.65;1.35;;;;;;;8.55;100.00;101137.53;2094868;28;20052;-75
2023/01/12 03:33:56;;;;;;;3.15;1.13;;;;;;;8.51;100.00;101136.56;2093603;28;20058;-75
2023/01/12 03:35:22;;;;;;;2.97;0.90;;;;;;;8.50;100.00;101133.88;2085646;28;20044;-75
2023/01/12 03:36:55;;;;;;;3.63;1.52;;;;;;;8.47;100.00;101137.28;2084614;28;20051;-75
2023/01/12 03:38:24;;;;;;;1.95;0.82;;;;;;;8.44;100.00;101139.84;2094123;28;20532;-76
2023/01/12 03:39:55;;;;;;;2.72;1.02;;;;;;;8.43;100.00;101138.06;2104437;28;20084;-76
2023/01/12 03:41:26;;;;;;;3.30;1.10;;;;;;;8.39;100.00;101130.94;2103315;28;20052;-75
2023/01/12 03:42:55;;;;;;;1.73;1.15;;;;;;;8.35;100.00;101132.56;2103847;28;20040;-76
2023/01/12 03:44:22;;;;;;;3.13;0.90;;;;;;;8.34;100.00;101125.50;2096506;28;20055;-76
2023/01/12 03:45:49;;;;;;;1.95;0.85;;;;;;;8.34;100.00;101129.88;2102562;28;20834;-76
2023/01/12 03:47:18;;;;;;;3.65;0.90;;;;;;;8.31;100.00;101130.69;2103010;28;20105;-76
2023/01/12 03:48:45;;;;;;;5.15;2.97;;;;;;;8.29;100.00;101131.44;2104272;28;20056;-76
2023/01/12 03:50:14;;;;;;;3.22;1.52;;;;;;;8.26;100.00;101132.28;2093861;28;20060;-76
2023/01/12 03:51:40;;;;;;;3.10;1.10;;;;;;;8.23;100.00;101129.53;2087514;28;20147;-76
2023/01/12 03:53:05;;;;;;;2.30;0.95;;;;;;;8.22;100.00;101132.09;2102923;28;20488;-76
2023/01/12 03:54:29;;;;;;;3.35;1.10;;;;;;;8.21;100.00;101135.56;2102222;28;20063;-77
2023/01/12 03:55:55;;;;;;;2.65;1.30;;;;;;;8.21;100.00;101135.56;2096634;28;20043;-76
2023/01/12 03:57:19;;;;;;;2.00;1.00;;;;;;;8.19;100.00;101138.19;2100780;28;20048;-76
2023/01/12 03:58:40;;;;;;;2.38;1.05;;;;;;;8.20;100.00;101136.44;2090838;28;20135;-76
2023/01/12 04:00:05;;;;;;;2.38;1.13;;;;;;;8.22;100.00;101129.47;2106901;28;20053;-76
2023/01/12 04:01:34;;;;;;;1.92;1.05;;;;;;;8.22;100.00;101140.88;2096912;28;20060;-76
2023/01/12 04:03:10;;;;;;;1.10;0.82;;;;;;;8.24;100.00;101144.47;2101648;28;20099;-76
2023/01/12 04:04:32;;;;;;;1.42;1.00;;;;;;;8.26;100.00;101140.16;2103686;28;20066;-75
2023/01/12 04:05:55;;;;;;;1.10;1.00;;;;;;;8.30;100.00;101147.31;2101282;28;20772;-76
2023/01/12 04:07:17;;;;;;;8.15;6.90;;;;;;;8.32;100.00;101143.00;2093750;28;20076;-76
2023/01/12 04:08:39;;;;;;;6.70;2.40;;;;;;;8.37;100.00;101148.41;2098869;28;20101;-76
2023/01/12 04:10:01;;;;;;;7.43;4.72;;;;;;;8.46;100.00;101156.59;2094049;28;20520;-76
2023/01/12 04:13:03;;;;;;;11.23;7.68;;;;;;;8.67;100.00;101159.81;2087292;28;20399;-76
2023/01/12 04:14:24;;;;;;;7.43;4.65;;;;;;;8.77;100.00;101158.38;2085537;28;20053;-75
2023/01/12 04:15:47;;;;;;;6.97;4.68;;;;;;;8.84;100.00;101157.69;2091703;28;20051;-75
2023/01/12 04:17:12;;;;;;;6.78;4.63;;;;;;;8.91;100.00;101162.31;2103576;28;20052;-76
2023/01/12 04:18:33;;;;;;;6.03;4.30;;;;;;;8.96;100.00;101168.59;2102521;28;20040;-77
2023/01/12 04:19:56;;;;;;;7.40;5.13;;;;;;;9.02;100.00;101163.47;2090634;28;20049;-76
2023/01/12 04:22:59;;;;;;;7.85;5.95;;;;;;;9.12;100.00;101169.91;2088524;28;20041;-76
2023/01/12 04:24:20;;;;;;;8.40;5.28;;;;;;;9.16;100.00;101171.78;2107646;28;20051;-76
2023/01/12 04:25:43;;;;;;;10.73;7.50;;;;;;;9.19;100.00;101174.47;2110413;28;20043;-76
2023/01/12 04:27:04;;;;;;;11.65;7.22;;;;;;;9.25;100.00;101174.69;2109962;28;20097;-76
2023/01/12 04:28:26;;;;;;;8.70;6.40;;;;;;;9.27;100.00;101180.84;2113277;28;20060;-76
2023/01/12 04:29:48;;;;;;;20.40;16.52;;;;;;;9.19;100.00;101164.84;2102112;28;20059;-75
2023/01/12 04:31:10;;;;;;;13.38;8.73;;;;;;;9.18;100.00;101160.44;2099778;28;20044;-75
2023/01/12 04:32:31;;;;;;;15.38;9.23;;;;;;;9.22;100.00;101165.78;2099544;28;20131;-74
2023/01/12 04:33:54;;;;;;;14.73;10.90;;;;;;;9.26;100.00;101162.38;2096183;28;20032;-74
2023/01/12 04:35:17;;;;;;;11.93;9.15;;;;;;;9.27;100.00;101164.16;2102827;28;20052;-75
2023/01/12 04:36:41;;;;;;;15.68;10.98;;;;;;;9.28;100.00;101161.56;2103151;28;20459;-75
2023/01/12 04:38:06;;;;;;;18.15;12.63;;;;;;;9.30;100.00;101161.63;2095400;28;20043;-75
2023/01/12 04:39:28;;;;;;;13.63;9.13;;;;;;;9.29;100.00;101163.34;2102150;28;20130;-75
2023/01/12 04:40:54;;;;;;;9.30;6.38;;;;;;;9.31;100.00;101163.41;2095389;28;20045;-76
2023/01/12 04:43:55;;;;;;;9.30;6.70;;;;;;;9.34;100.00;101156.47;2105897;28;20044;-76
2023/01/12 04:45:16;;;;;;;10.15;6.88;;;;;;;9.39;100.00;101160.09;2103626;28;20063;-76
2023/01/12 04:46:39;;;;;;;11.05;7.22;;;;;;;9.42;100.00;101154.94;2103110;28;20087;-76
2023/01/12 04:48:01;;;;;;;10.50;7.07;;;;;;;9.45;100.00;101155.00;2097645;28;20048;-76
2023/01/12 04:49:24;;;;;;;9.63;6.97;;;;;;;9.50;100.00;101158.66;2099637;28;20842;-76
2023/01/12 04:50:48;;;;;;;12.02;6.70;;;;;;;9.54;100.00;101165.78;2102109;28;20448;-76
2023/01/12 04:52:12;;;;;;;14.07;7.78;;;;;;;9.54;100.00;101157.88;2103320;28;20036;-76
2023/01/12 04:53:34;;;;;;;14.18;10.55;;;;;;;9.46;100.00;101167.31;2097669;28;20052;-76
2023/01/12 04:54:55;;;;;;;45.67;40.83;;;;;;;9.35;100.00;101160.88;2095081;28;20044;-77
2023/01/12 04:56:18;;;;;;;61.70;55.53;;;;;;;9.29;100.00;101165.09;2099301;28;20048;-76
2023/01/12 04:57:39;;;;;;;23.35;20.92;;;;;;;9.21;100.00;101170.16;2098048;28;20482;-76
2023/01/12 04:59:02;;;;;;;51.50;46.03;;;;;;;9.14;100.00;101176.09;2094884;28;20052;-76
2023/01/12 05:00:25;;;;;;;36.83;31.02;;;;;;;9.08;100.00;101168.03;2088568;28;20056;-75
2023/01/12 05:01:47;;;;;;;11.60;7.22;;;;;;;9.08;100.00;101174.19;2092648;28;20472;-76
2023/01/12 05:03:10;;;;;;;13.75;8.75;;;;;;;9.10;100.00;101171.59;2100834;28;20036;-75
2023/01/12 05:04:32;;;;;;;17.20;9.02;;;;;;;9.13;100.00;101171.66;2102752;28;20129;-75
2023/01/12 05:05:54;;;;;;;10.38;6.68;;;;;;;9.14;100.00;101176.09;2103721;28;20040;-76
2023/01/12 05:07:17;;;;;;;11.52;6.40;;;;;;;9.14;100.00;101173.47;2103524;28;20051;-75
2023/01/12 05:10:25;;;;;;;12.65;7.65;;;;;;;9.13;100.00;101180.47;2104804;28;20043;-76
2023/01/12 05:11:47;;;;;;;13.52;7.55;;;;;;;9.15;100.00;101184.06;2103652;28;20449;-76
2023/01/12 05:13:09;;;;;;;14.85;9.55;;;;;;;9.16;100.00;101190.22;2103300;28;20052;-75
2023/01/12 05:14:31;;;;;;;15.88;9.45;;;;;;;9.17;100.00;101181.47;2103525;28;20044;-75
2023/01/12 05:15:53;;;;;;;14.80;9.40;;;;;;;9.18;100.00;101185.88;2103316;28;20044;-75
2023/01/12 05:17:15;;;;;;;10.00;6.25;;;;;;;9.19;100.00;101187.66;2106112;28;20105;-75
2023/01/12 05:18:37;;;;;;;7.85;3.75;;;;;;;9.24;100.00;101188.69;2095054;28;20045;-75
2023/01/12 05:19:59;;;;;;;10.85;5.78;;;;;;;9.27;100.00;101183.50;2099268;28;20058;-75
2023/01/12 05:21:23;;;;;;;12.63;7.75;;;;;;;9.33;100.00;101188.03;2086946;28;20048;-76
2023/01/12 05:22:50;;;;;;;13.20;8.15;;;;;;;9.38;100.00;101192.59;2089510;28;20056;-75
2023/01/12 05:24:12;;;;;;;18.95;13.68;;;;;;;9.41;100.00;101183.88;2096971;28;20048;-76
2023/01/12 05:25:33;;;;;;;16.48;12.48;;;;;;;9.47;100.00;101189.28;2103142;28;20524;-76
2023/01/12 05:26:56;;;;;;;12.98;10.18;;;;;;;9.50;100.00;101192.94;2103314;28;20052;-76
2023/01/12 05:28:18;;;;;;;13.15;10.10;;;;;;;9.56;100.00;101193.09;2103155;28;20044;-76
2023/01/12 05:29:39;;;;;;;13.73;9.35;;;;;;;9.60;100.00;101192.31;2103233;28;20082;-76
2023/01/12 05:31:04;;;;;;;16.00;9.32;;;;;;;9.64;100.00;101189.75;2094220;28;20495;-76
2023/01/12 05:32:27;;;;;;;13.60;9.25;;;;;;;9.66;100.00;101201.22;2103545;28;20052;-76
2023/01/12 05:33:49;;;;;;;15.65;10.52;;;;;;;9.67;100.00;101203.00;2103234;28;20510;-76
2023/01/12 05:35:11;;;;;;;15.65;8.90;;;;;;;9.67;100.00;101205.63;2103515;28;20047;-76
2023/01/12 05:36:33;;;;;;;14.93;8.73;;;;;;;9.67;100.00;101203.00;2105556;28;20051;-76
2023/01/12 05:37:56;;;;;;;14.15;9.68;;;;;;;9.71;100.00;101216.31;2101208;28;20044;-76
2023/01/12 05:39:20;;;;;;;13.68;9.68;;;;;;;9.78;100.00;101222.66;2103076;28;20166;-76
2023/01/12 05:40:41;;;;;;;13.25;9.20;;;;;;;9.83;100.00;101224.53;2097006;28;20509;-76
2023/01/12 05:43:53;;;;;;;13.98;9.38;;;;;;;9.92;100.00;101229.16;2060007;28;20142;-76
2023/01/12 05:45:14;;;;;;;19.48;13.20;;;;;;;9.94;100.00;101230.97;2103232;28;20056;-77
2023/01/12 05:46:39;;;;;;;21.42;16.75;;;;;;;9.95;100.00;101224.84;2099252;28;20079;-76
2023/01/12 05:48:00;;;;;;;25.45;18.08;;;;;;;9.95;100.00;101231.88;2095390;28;20044;-76
2023/01/12 05:49:23;;;;;;;;;;;;;;;9.89;100.00;101222.06;2095142;28;20048;-76
2023/01/12 05:50:44;;;;;;;21.33;16.00;;;;;;;9.89;100.00;101227.34;2094633;28;19947;-76
2023/01/12 05:52:06;;;;;;;21.83;16.85;;;;;;;9.92;100.00;101231.78;2097715;28;20052;-76
2023/01/12 05:53:30;;;;;;;21.85;16.38;;;;;;;9.93;100.00;101223.91;2102473;28;20032;-76
2023/01/12 05:54:53;;;;;;;21.02;16.27;;;;;;;9.96;100.00;101228.38;2103099;28;20464;-76
2023/01/12 05:56:18;;;;;;;18.92;13.23;;;;;;;9.98;100.00;101235.47;2103354;28;20040;-76
2023/01/12 05:57:40;;;;;;;17.83;13.70;;;;;;;9.99;100.00;101231.09;2103542;28;20048;-76
2023/01/12 05:59:04;;;;;;;19.60;13.95;;;;;;;10.02;100.00;101228.53;2093989;28;20130;-75
2023/01/12 06:00:25;;;;;;;18.77;14.65;;;;;;;10.04;100.00;101234.75;2094992;28;20052;-76
2023/01/12 06:01:47;;;;;;;19.88;15.52;;;;;;;10.07;100.00;101237.44;2102810;28;20056;-76
2023/01/12 06:03:10;;;;;;;18.42;14.32;;;;;;;10.10;100.00;101237.53;2098537;28;20060;-77
2023/01/12 06:04:31;;;;;;;19.05;14.25;;;;;;;10.13;100.00;101236.72;2103162;28;20039;-76
2023/01/12 06:05:54;;;;;;;19.48;15.50;;;;;;;10.15;100.00;101235.91;2102566;28;20044;-75
2023/01/12 06:07:17;;;;;;;19.77;15.75;;;;;;;10.19;100.00;101235.16;2105524;28;20040;-76
2023/01/12 06:08:41;;;;;;;18.98;15.98;;;;;;;10.24;100.00;101241.44;2103199;28;20398;-75
2023/01/12 06:10:03;;;;;;;18.10;15.55;;;;;;;10.28;100.00;101240.66;2102690;28;20043;-75
2023/01/12 06:14:45;;;;;;;24.88;18.90;;;;;;;10.36;100.00;101246.13;2105419;28;20083;-76
2023/01/12 06:16:08;;;;;;;24.77;18.67;;;;;;;10.39;100.00;101246.19;2102686;28;20032;-75
2023/01/12 06:17:31;;;;;;;28.63;22.55;;;;;;;10.45;100.00;101253.34;2103216;28;20474;-76
2023/01/12 06:18:54;;;;;;;24.38;19.52;;;;;;;10.51;100.00;101249.13;2102146;28;20044;-76
2023/01/12 06:20:16;;;;;;;23.75;19.10;;;;;;;10.59;100.00;101250.19;2102749;28;20056;-76
2023/01/12 06:21:39;;;;;;;25.88;19.38;;;;;;;10.67;100.00;101253.00;2103038;28;20141;-74
2023/01/12 06:23:02;;;;;;;21.45;15.85;;;;;;;10.74;100.00;101249.66;2103588;28;20089;-74
2023/01/12 06:24:25;;;;;;;20.70;15.43;;;;;;;10.83;100.00;101255.13;2110945;28;20087;-75
2023/01/12 06:25:47;;;;;;;15.13;11.18;;;;;;;10.86;100.00;101255.22;2105588;28;20048;-74
2023/01/12 06:27:09;;;;;;;17.35;11.52;;;;;;;10.93;100.00;101264.16;2108066;28;20497;-74
2023/01/12 06:28:32;;;;;;;14.68;10.85;;;;;;;11.02;100.00;101264.38;2111129;28;20047;-74
2023/01/12 06:29:54;;;;;;;18.52;12.00;;;;;;;11.08;100.00;101267.16;2111360;28;20721;-74
2023/01/12 06:31:16;;;;;;;19.88;12.77;;;;;;;11.13;100.00;101266.38;2111014;28;20055;-75
2023/01/12 06:32:40;;;;;;;16.60;11.65;;;;;;;11.15;100.00;101258.50;2113880;28;20044;-75
2023/01/12 06:34:02;;;;;;;17.23;11.27;;;;;;;11.12;100.00;101269.00;2102615;28;20141;-75
2023/01/12 06:35:24;;;;;;;14.50;8.77;;;;;;;11.07;100.00;101265.38;2102749;28;20051;-75
2023/01/12 06:36:48;;;;;;;14.20;10.98;;;;;;;11.00;100.00;101261.69;2094175;28;20060;-75
2023/01/12 06:38:09;;;;;;;12.77;9.13;;;;;;;10.97;100.00;101260.72;2103148;28;20127;-75
2023/01/12 06:39:33;;;;;;;16.73;11.70;;;;;;;10.95;100.00;101271.28;2102318;28;20082;-75
2023/01/12 06:41:01;;;;;;;16.10;11.63;;;;;;;10.92;100.00;101271.19;2105068;28;20073;-76
2023/01/12 06:42:29;;;;;;;13.38;9.82;;;;;;;10.90;100.00;101272.91;2097276;28;20044;-76
2023/01/12 06:43:51;;;;;;;9.95;7.32;;;;;;;10.89;100.00;101276.44;2101236;28;20044;-77
2023/01/12 06:45:14;;;;;;;9.93;6.82;;;;;;;10.92;100.00;101276.47;2094362;28;20057;-77
2023/01/12 06:46:35;;;;;;;9.73;6.20;;;;;;;10.97;100.00;101282.75;2100184;28;20512;-77
2023/01/12 06:47:58;;;;;;;26.92;14.60;;;;;;;11.04;100.00;101289.94;2093835;28;20044;-77
2023/01/12 06:49:20;;;;;;;26.73;11.38;;;;;;;11.10;100.00;101282.16;2099632;28;20044;-77
2023/01/12 06:50:42;;;;;;;17.90;8.23;;;;;;;11.17;100.00;101286.72;2102580;28;20056;-77
2023/01/12 06:52:05;;;;;;;17.42;9.68;;;;;;;11.25;100.00;101289.53;2102471;28;20551;-76
2023/01/12 06:53:28;;;;;;;7.38;4.07;;;;;;;11.33;100.00;101287.94;2102582;28;20082;-75
2023/01/12 06:54:53;;;;;;;7.30;4.38;;;;;;;11.44;100.00;101283.75;2102307;28;20604;-76